createdAt,value
2023-03-26T00:04:19.851Z,2.57
2023-03-26T00:09:25.263Z,2.50
2023-03-26T00:14:30.836Z,1.97
2023-03-26T00:19:39.151Z,2.22
2023-03-26T00:24:46.206Z,2.42
2023-03-26T00:29:51.695Z,2.57
2023-03-26T00:35:01.820Z,2.53
2023-03-26T00:40:11.142Z,3.13
2023-03-26T00:45:17.361Z,3.00
2023-03-26T00:50:25.614Z,2.10
2023-03-26T00:55:31.121Z,2.23
2023-03-26T01:00:39.392Z,2.20
2023-03-26T01:05:53.395Z,2.38
2023-03-26T01:11:07.388Z,2.47
2023-03-26T01:16:22.179Z,2.53
2023-03-26T01:21:34.692Z,2.37
2023-03-26T01:27:01.356Z,2.25
2023-03-26T01:32:16.915Z,2.40
2023-03-26T01:37:30.711Z,2.83
2023-03-26T01:42:44.548Z,2.47
2023-03-26T01:47:50.556Z,2.53
2023-03-26T01:52:56.281Z,1.90
2023-03-26T01:58:10.629Z,2.10
2023-03-26T02:03:24.757Z,1.80
2023-03-26T02:08:38.139Z,1.92
2023-03-26T02:13:47.982Z,2.20
2023-03-26T02:18:56.031Z,2.42
2023-03-26T02:24:03.772Z,1.77
2023-03-26T02:29:19.620Z,1.80
2023-03-26T02:34:26.261Z,2.35
2023-03-26T02:39:33.349Z,2.97
2023-03-26T02:44:48.665Z,3.03
2023-03-26T02:49:56.734Z,1.83
2023-03-26T02:55:18.294Z,2.97
2023-03-26T03:00:29.205Z,2.33
2023-03-26T03:06:03.598Z,2.33
2023-03-26T03:11:18.595Z,2.30
2023-03-26T03:16:28.741Z,2.47
2023-03-26T03:21:36.641Z,2.07
2023-03-26T03:26:42.566Z,2.90
2023-03-26T03:32:13.709Z,3.05
2023-03-26T03:37:24.808Z,2.03
2023-03-26T03:42:33.591Z,1.70
2023-03-26T03:47:44.003Z,2.47
2023-03-26T03:52:50.903Z,2.70
2023-03-26T03:57:57.061Z,2.45
2023-03-26T04:03:06.931Z,1.93
2023-03-26T04:08:13.398Z,1.83
2023-03-26T04:13:29.856Z,2.23
2023-03-26T04:19:10.150Z,2.00
2023-03-26T04:24:15.973Z,1.95
2023-03-26T04:29:44.890Z,1.83
2023-03-26T04:35:00.350Z,2.10
2023-03-26T04:40:10.548Z,2.30
2023-03-26T04:45:34.708Z,2.20
2023-03-26T04:50:43.575Z,1.73
2023-03-26T04:55:54.592Z,2.43
2023-03-26T05:01:21.719Z,1.58
2023-03-26T05:06:34.504Z,2.00
2023-03-26T05:11:46.478Z,1.73
2023-03-26T05:16:53.435Z,1.77
2023-03-26T05:22:02.632Z,1.97
2023-03-26T05:27:11.631Z,1.90
2023-03-26T05:32:17.393Z,1.87
2023-03-26T05:37:27.039Z,2.10
2023-03-26T05:42:40.979Z,2.50
2023-03-26T05:48:09.976Z,3.10
2023-03-26T05:53:18.463Z,2.10
2023-03-26T05:58:43.747Z,1.93
2023-03-26T06:04:21.465Z,2.25
2023-03-26T06:09:44.080Z,1.92
2023-03-26T06:14:49.924Z,1.87
2023-03-26T06:19:59.993Z,1.80
2023-03-26T06:25:18.203Z,2.20
2023-03-26T06:30:35.669Z,2.42
2023-03-26T06:35:47.226Z,1.90
2023-03-26T06:40:57.266Z,2.10
2023-03-26T06:46:06.147Z,1.95
2023-03-26T06:51:17.780Z,2.67
2023-03-26T06:56:45.134Z,2.35
2023-03-26T07:02:02.762Z,2.10
2023-03-26T07:07:27.269Z,2.20
2023-03-26T07:12:53.830Z,2.40
2023-03-26T07:18:17.594Z,1.90
2023-03-26T07:23:25.074Z,2.92
2023-03-26T07:29:05.948Z,2.50
2023-03-26T07:34:45.017Z,2.70
2023-03-26T07:40:13.854Z,2.20
2023-03-26T07:45:46.615Z,2.27
2023-03-26T07:51:18.938Z,2.38
2023-03-26T07:56:58.048Z,2.20
2023-03-26T08:02:41.479Z,2.10
2023-03-26T08:08:15.032Z,2.40
2023-03-26T08:13:40.292Z,2.10
2023-03-26T08:18:58.574Z,1.98
2023-03-26T08:24:09.876Z,1.98
2023-03-26T08:29:23.306Z,2.07
2023-03-26T08:34:33.430Z,1.95
2023-03-26T08:39:38.984Z,2.97
2023-03-26T08:45:20.915Z,2.47
2023-03-26T08:50:59.432Z,2.05
2023-03-26T08:56:13.074Z,1.80
2023-03-26T09:02:01.864Z,2.80
2023-03-26T09:07:54.068Z,2.40
2023-03-26T09:13:30.726Z,2.35
2023-03-26T09:19:04.583Z,2.08
2023-03-26T09:24:33.280Z,1.40
2023-03-26T09:30:09.657Z,1.60
2023-03-26T09:35:41.423Z,1.50
2023-03-26T09:40:58.907Z,1.73
2023-03-26T09:46:17.662Z,1.70
2023-03-26T09:51:39.498Z,1.27
2023-03-26T09:56:58.169Z,1.02
2023-03-26T10:02:19.877Z,1.10
2023-03-26T10:07:50.520Z,1.08
2023-03-26T10:13:13.908Z,1.42
2023-03-26T10:18:30.860Z,0.80
2023-03-26T10:23:57.437Z,0.70
2023-03-26T10:29:35.765Z,0.23
2023-03-26T10:34:56.848Z,0.40
2023-03-26T10:40:24.816Z,0.50
2023-03-26T10:45:48.756Z,0.50
2023-03-26T10:51:29.210Z,0.50
2023-03-26T10:56:38.476Z,0.50
2023-03-26T11:01:54.109Z,0.50
2023-03-26T11:07:09.638Z,0.50
2023-03-26T11:12:27.005Z,0.30
2023-03-26T11:17:48.072Z,0.50
2023-03-26T11:23:07.675Z,0.40
2023-03-26T11:28:28.757Z,0.40
2023-03-26T11:33:45.433Z,0.50
2023-03-26T11:38:56.328Z,0.40
2023-03-26T11:44:14.146Z,0.75
2023-03-26T11:49:25.485Z,0.40
2023-03-26T11:54:33.142Z,1.02
2023-03-26T11:59:55.876Z,0.52
2023-03-26T12:05:21.987Z,0.37
2023-03-26T12:10:38.050Z,0.47
2023-03-26T12:15:46.744Z,0.30
2023-03-26T12:21:05.984Z,0.30
2023-03-26T12:26:19.014Z,0.35
2023-03-26T12:31:26.714Z,0.43
2023-03-26T12:36:36.503Z,0.30
2023-03-26T12:44:43.489Z,0.30
2023-03-26T12:47:56.421Z,0.35
2023-03-26T12:53:05.299Z,0.30
2023-03-26T12:58:25.514Z,0.70
2023-03-26T13:03:46.016Z,0.82
2023-03-26T13:09:26.657Z,1.30
2023-03-26T13:14:47.505Z,1.13
2023-03-26T13:20:00.577Z,0.50
2023-03-26T13:25:23.391Z,0.90
2023-03-26T13:30:36.373Z,0.40
2023-03-26T13:36:23.229Z,0.40
2023-03-26T13:41:47.498Z,0.60
2023-03-26T13:47:01.734Z,0.20
2023-03-26T13:52:10.462Z,0.53
2023-03-26T13:57:24.318Z,1.80
2023-03-26T14:02:36.684Z,1.80
2023-03-26T14:07:47.605Z,0.40
2023-03-26T14:13:04.264Z,1.02
2023-03-26T14:18:30.941Z,1.40
2023-03-26T14:24:19.120Z,4.00
2023-03-26T14:29:40.022Z,0.60
2023-03-26T14:35:20.348Z,0.22
2023-03-26T14:40:33.945Z,0.45
2023-03-26T14:46:01.276Z,1.03
2023-03-26T14:51:18.985Z,0.47
2023-03-26T14:56:48.485Z,0.50
2023-03-26T15:02:39.889Z,1.40
2023-03-26T15:08:08.068Z,1.70
2023-03-26T15:13:33.275Z,1.43
2023-03-26T15:19:19.549Z,1.83
2023-03-26T15:25:04.347Z,1.83
2023-03-26T15:30:39.414Z,1.35
2023-03-26T15:36:03.525Z,1.50
2023-03-26T15:41:19.554Z,1.63
2023-03-26T15:46:36.587Z,1.30
2023-03-26T15:51:53.283Z,1.40
2023-03-26T15:57:20.911Z,1.40
2023-03-26T16:02:54.105Z,1.60
2023-03-26T16:14:16.738Z,1.63
2023-03-26T16:19:46.220Z,1.80
2023-03-26T16:25:28.274Z,1.40
2023-03-26T16:30:37.687Z,1.70
2023-03-26T16:36:05.008Z,1.97
2023-03-26T16:41:19.577Z,2.10
2023-03-26T16:46:36.927Z,2.47
2023-03-26T17:09:58.389Z,4.53
2023-03-26T17:21:07.231Z,4.28
2023-03-26T17:26:26.913Z,4.03
2023-03-26T17:31:45.348Z,3.50
2023-03-26T17:36:59.213Z,3.38
2023-03-26T17:42:21.742Z,3.60
2023-03-26T17:47:34.521Z,3.88
2023-03-26T17:52:56.604Z,3.10
2023-03-26T17:58:07.012Z,3.67
2023-03-26T18:03:21.573Z,2.92
2023-03-26T18:08:43.299Z,3.10
2023-03-26T18:14:27.243Z,3.55
2023-03-26T18:19:49.957Z,3.60
2023-03-26T18:24:59.948Z,3.00
2023-03-26T18:30:16.856Z,2.38
2023-03-26T18:35:25.709Z,2.23
2023-03-26T18:40:35.318Z,1.88
2023-03-26T18:45:42.793Z,1.88
2023-03-26T18:50:56.488Z,2.07
2023-03-26T18:56:02.027Z,1.95
2023-03-26T19:01:20.128Z,2.00
2023-03-26T19:06:36.113Z,2.13
2023-03-26T19:11:42.228Z,1.60
2023-03-26T19:16:54.197Z,2.67
2023-03-26T19:22:02.820Z,1.73
2023-03-26T19:27:08.864Z,2.03
2023-03-26T19:32:20.692Z,2.10
2023-03-26T19:37:31.540Z,2.00
2023-03-26T19:42:43.975Z,2.03
2023-03-26T19:48:00.584Z,1.60
2023-03-26T19:53:24.439Z,1.90
2023-03-26T19:58:30.893Z,2.42
2023-03-26T20:03:42.999Z,1.23
2023-03-26T20:08:52.823Z,1.40
2023-03-26T20:13:58.669Z,1.60
2023-03-26T20:19:05.257Z,1.63
2023-03-26T20:24:18.097Z,1.85
2023-03-26T20:29:23.909Z,1.05
2023-03-26T20:34:30.777Z,1.43
2023-03-26T20:39:39.760Z,1.80
2023-03-26T20:44:45.145Z,1.40
2023-03-26T20:49:51.099Z,1.17
2023-03-26T20:54:59.287Z,1.00
2023-03-26T21:00:09.182Z,1.27
2023-03-26T21:05:19.219Z,1.20
2023-03-26T21:10:29.835Z,1.93
2023-03-26T21:15:38.143Z,0.90
2023-03-26T21:20:45.025Z,1.50
2023-03-26T21:26:02.938Z,1.40
2023-03-26T21:31:09.621Z,1.30
2023-03-26T21:36:15.939Z,1.20
2023-03-26T21:41:36.055Z,0.90
2023-03-26T21:46:48.010Z,1.35
2023-03-26T21:51:56.169Z,1.00
2023-03-26T21:57:20.971Z,1.23
2023-03-26T22:02:34.984Z,1.00
2023-03-26T22:07:53.666Z,1.03
2023-03-26T22:13:02.734Z,1.38
2023-03-26T22:18:08.855Z,0.77
2023-03-26T22:23:21.304Z,1.17
2023-03-26T22:28:36.688Z,1.02
2023-03-26T22:33:43.141Z,1.13
2023-03-26T22:39:10.606Z,0.95
2023-03-26T22:44:35.032Z,1.08
2023-03-26T22:55:34.430Z,0.88
2023-03-26T23:00:43.334Z,0.63
2023-03-26T23:05:58.463Z,1.15
2023-03-26T23:11:04.650Z,0.90
2023-03-26T23:16:15.177Z,0.93
2023-03-26T23:21:22.715Z,1.00
2023-03-26T23:26:34.983Z,1.57
2023-03-26T23:31:46.177Z,0.88
2023-03-26T23:36:52.569Z,1.00
2023-03-26T23:41:58.019Z,1.30
2023-03-26T23:47:10.611Z,0.90
2023-03-26T23:52:16.236Z,1.47
2023-03-26T23:57:21.623Z,1.00
